EZY74W LEBL-LIMC
Flight info
| Callsign | EZY74W |
|---|---|
| Flight time | N/A |
| Altitude | 30000 |
| Route | AGENA4B AGENA DCT BODEQ DCT LUMAS DCT UNANA DCT STP DCT RAPED DCT PIGOS DCT EKSID DCT NOSTA DCT EGHIN DCT ANAKI/N0378F180 P860 DEVOX DEVOX3H |
| Aircraft | A20N/M-SDE2E3FGHIRWXY/LB1 |
Departure
| Time | 2026-05-07 16:59 |
|---|---|
| Airport | Josep Tarradellas Barcelona-El Prat Airport (LEBL) |
Arrival
| Time | N/A |
|---|---|
| Airport | Milan Malpensa International Airport (LIMC) |
| Time | Latitude | Longitude | Altitude | Speed | Heading |
|---|---|---|---|---|---|
| 2026-05-07 16:40 | 41.30242 | 2.07932 | 2 ft | 0 kts | 25° |
| 2026-05-07 16:51 | 41.30240 | 2.07931 | 3 ft | 2 kts | 25° |
| 2026-05-07 16:51 | 41.30224 | 2.07922 | 3 ft | 2 kts | 25° |
| 2026-05-07 16:51 | 41.30214 | 2.07915 | 3 ft | 2 kts | 25° |
| 2026-05-07 16:52 | 41.30194 | 2.07903 | 5 ft | 2 kts | 23° |
| 2026-05-07 16:52 | 41.30179 | 2.07895 | 3 ft | 2 kts | 19° |
| 2026-05-07 16:52 | 41.30163 | 2.07889 | 3 ft | 2 kts | 351° |
| 2026-05-07 16:52 | 41.30147 | 2.07898 | 2 ft | 2 kts | 314° |
| 2026-05-07 16:53 | 41.30138 | 2.07916 | 2 ft | 2 kts | 291° |
| 2026-05-07 16:53 | 41.30134 | 2.07937 | 2 ft | 2 kts | 276° |
| 2026-05-07 16:53 | 41.30133 | 2.07951 | 2 ft | 2 kts | 264° |
| 2026-05-07 16:53 | 41.30134 | 2.07961 | 2 ft | 0 kts | 252° |
| 2026-05-07 16:54 | 41.30135 | 2.07964 | 2 ft | 0 kts | 247° |
| 2026-05-07 16:54 | 41.30133 | 2.07962 | 2 ft | 1 kts | 233° |
| 2026-05-07 16:55 | 41.30096 | 2.07960 | 2 ft | 10 kts | 168° |
| 2026-05-07 16:55 | 41.30044 | 2.07891 | 2 ft | 13 kts | 244° |
| 2026-05-07 16:55 | 41.30003 | 2.07771 | 3 ft | 14 kts | 241° |
| 2026-05-07 16:55 | 41.29960 | 2.07650 | 2 ft | 16 kts | 249° |
| 2026-05-07 16:56 | 41.29910 | 2.07506 | 2 ft | 18 kts | 245° |
| 2026-05-07 16:56 | 41.29853 | 2.07337 | 2 ft | 21 kts | 244° |
| 2026-05-07 16:56 | 41.29737 | 2.07199 | 2 ft | 10 kts | 227° |
| 2026-05-07 16:57 | 41.29692 | 2.07079 | 2 ft | 17 kts | 231° |
| 2026-05-07 16:57 | 41.29610 | 2.07083 | 2 ft | 11 kts | 159° |
| 2026-05-07 16:57 | 41.29531 | 2.07132 | 2 ft | 14 kts | 152° |
| 2026-05-07 16:57 | 41.29496 | 2.07235 | 5 ft | 14 kts | 71° |
| 2026-05-07 16:58 | 41.29539 | 2.07360 | 5 ft | 20 kts | 65° |
| 2026-05-07 16:58 | 41.29670 | 2.07745 | 4 ft | 78 kts | 65° |
| 2026-05-07 16:58 | 41.29977 | 2.08633 | 7 ft | 131 kts | 65° |
| 2026-05-07 16:58 | 41.30419 | 2.09878 | 182 ft | 156 kts | 67° |
| 2026-05-07 16:59 | 41.30868 | 2.11168 | 852 ft | 157 kts | 68° |
| 2026-05-07 16:59 | 41.31350 | 2.12581 | 1209 ft | 180 kts | 69° |
| 2026-05-07 16:59 | 41.31896 | 2.14208 | 1502 ft | 205 kts | 68° |
| 2026-05-07 16:59 | 41.32511 | 2.16039 | 1817 ft | 227 kts | 68° |
| 2026-05-07 17:00 | 41.33224 | 2.18031 | 2147 ft | 250 kts | 59° |
| 2026-05-07 17:00 | 41.34336 | 2.19926 | 2491 ft | 269 kts | 48° |
| 2026-05-07 17:00 | 41.35646 | 2.21747 | 3169 ft | 273 kts | 45° |
| 2026-05-07 17:00 | 41.36957 | 2.23574 | 3968 ft | 274 kts | 45° |
| 2026-05-07 17:01 | 41.38244 | 2.25449 | 4327 ft | 275 kts | 46° |
| 2026-05-07 17:01 | 41.39510 | 2.27369 | 4471 ft | 275 kts | 47° |
| 2026-05-07 17:01 | 41.40755 | 2.29303 | 4560 ft | 277 kts | 48° |
| 2026-05-07 17:01 | 41.42006 | 2.31272 | 5087 ft | 279 kts | 47° |
| 2026-05-07 17:02 | 41.43254 | 2.33240 | 6252 ft | 277 kts | 47° |
| 2026-05-07 17:02 | 41.44537 | 2.35168 | 7253 ft | 281 kts | 45° |
| 2026-05-07 17:02 | 41.45897 | 2.37120 | 8252 ft | 286 kts | 44° |
| 2026-05-07 17:02 | 41.47246 | 2.39045 | 9241 ft | 290 kts | 45° |
| 2026-05-07 17:03 | 41.48636 | 2.41040 | 10186 ft | 296 kts | 45° |
| 2026-05-07 17:03 | 41.50084 | 2.43129 | 10700 ft | 318 kts | 45° |
| 2026-05-07 17:03 | 41.51456 | 2.45578 | 11036 ft | 344 kts | 62° |
| 2026-05-07 17:03 | 41.52143 | 2.48680 | 11710 ft | 355 kts | 84° |
| 2026-05-07 17:04 | 41.52112 | 2.52000 | 12577 ft | 360 kts | 93° |
| 2026-05-07 17:04 | 41.51982 | 2.55353 | 13452 ft | 365 kts | 93° |
| 2026-05-07 17:04 | 41.51847 | 2.58759 | 14229 ft | 370 kts | 93° |
| 2026-05-07 17:04 | 41.51711 | 2.62231 | 14953 ft | 376 kts | 93° |
| 2026-05-07 17:05 | 41.51577 | 2.65725 | 15654 ft | 382 kts | 93° |
| 2026-05-07 17:05 | 41.51440 | 2.69291 | 16363 ft | 388 kts | 94° |
| 2026-05-07 17:05 | 41.51302 | 2.72918 | 17043 ft | 394 kts | 94° |
| 2026-05-07 17:05 | 41.51161 | 2.76596 | 17729 ft | 400 kts | 94° |
| 2026-05-07 17:06 | 41.51017 | 2.80331 | 18375 ft | 406 kts | 94° |
| 2026-05-07 17:06 | 41.50869 | 2.84120 | 18963 ft | 412 kts | 94° |
| 2026-05-07 17:06 | 41.50718 | 2.87958 | 19558 ft | 417 kts | 95° |
| 2026-05-07 17:06 | 41.50564 | 2.91846 | 20137 ft | 422 kts | 95° |
| 2026-05-07 17:07 | 41.50406 | 2.95782 | 20731 ft | 427 kts | 95° |
| 2026-05-07 17:07 | 41.50245 | 2.99768 | 21318 ft | 432 kts | 95° |
| 2026-05-07 17:07 | 41.50081 | 3.03793 | 21905 ft | 437 kts | 96° |
| 2026-05-07 17:07 | 41.49913 | 3.07859 | 22477 ft | 442 kts | 96° |
| 2026-05-07 17:08 | 41.49742 | 3.11973 | 23061 ft | 446 kts | 96° |
| 2026-05-07 17:08 | 41.49596 | 3.16130 | 23602 ft | 452 kts | 93° |
| 2026-05-07 17:08 | 41.49799 | 3.20334 | 24095 ft | 458 kts | 84° |
| 2026-05-07 17:08 | 41.50423 | 3.24533 | 24587 ft | 463 kts | 78° |
| 2026-05-07 17:09 | 41.51141 | 3.28733 | 25068 ft | 467 kts | 79° |
| 2026-05-07 17:09 | 41.51856 | 3.32973 | 25543 ft | 470 kts | 79° |
| 2026-05-07 17:09 | 41.52571 | 3.37252 | 25994 ft | 474 kts | 79° |
| 2026-05-07 17:09 | 41.53287 | 3.41558 | 26427 ft | 478 kts | 79° |
| 2026-05-07 17:10 | 41.54016 | 3.45955 | 26896 ft | 481 kts | 79° |
| 2026-05-07 17:10 | 41.54740 | 3.50327 | 27324 ft | 484 kts | 79° |
| 2026-05-07 17:10 | 41.55468 | 3.54734 | 27732 ft | 488 kts | 79° |
| 2026-05-07 17:10 | 41.56198 | 3.59171 | 28134 ft | 491 kts | 79° |
| 2026-05-07 17:11 | 41.56943 | 3.63702 | 28543 ft | 494 kts | 79° |
| 2026-05-07 17:11 | 41.57679 | 3.68193 | 28905 ft | 497 kts | 79° |
| 2026-05-07 17:11 | 41.58420 | 3.72724 | 29281 ft | 500 kts | 80° |
| 2026-05-07 17:11 | 41.59152 | 3.77218 | 29614 ft | 504 kts | 80° |
| 2026-05-07 17:12 | 41.59898 | 3.81807 | 29901 ft | 506 kts | 80° |
| 2026-05-07 17:12 | 41.60644 | 3.86405 | 29955 ft | 507 kts | 80° |
| 2026-05-07 17:12 | 41.62132 | 3.95614 | 29949 ft | 506 kts | 80° |
| 2026-05-07 17:13 | 41.63362 | 4.03263 | 29956 ft | 506 kts | 80° |
| 2026-05-07 17:13 | 41.64835 | 4.12469 | 29951 ft | 507 kts | 80° |
| 2026-05-07 17:14 | 41.66300 | 4.21673 | 29955 ft | 506 kts | 81° |
| 2026-05-07 17:14 | 41.67758 | 4.30888 | 29954 ft | 506 kts | 81° |
| 2026-05-07 17:15 | 41.69208 | 4.40104 | 29952 ft | 506 kts | 81° |
| 2026-05-07 17:15 | 41.70651 | 4.49320 | 29952 ft | 506 kts | 81° |
| 2026-05-07 17:16 | 41.72087 | 4.58550 | 29955 ft | 506 kts | 81° |
| 2026-05-07 17:16 | 41.74403 | 4.67454 | 29960 ft | 512 kts | 60° |
| 2026-05-07 17:17 | 41.76453 | 4.71346 | 29962 ft | 512 kts | 48° |
| 2026-05-07 17:17 | 41.78939 | 4.74753 | 29962 ft | 511 kts | 41° |
| 2026-05-07 17:17 | 41.84172 | 4.81180 | 29960 ft | 511 kts | 41° |
| 2026-05-07 17:18 | 41.89316 | 4.87766 | 29960 ft | 511 kts | 43° |
| 2026-05-07 17:18 | 41.94422 | 4.94513 | 29963 ft | 512 kts | 43° |
| 2026-05-07 17:19 | 41.99477 | 5.01245 | 29961 ft | 512 kts | 43° |
| 2026-05-07 17:19 | 42.04538 | 5.07997 | 29958 ft | 512 kts | 43° |
| 2026-05-07 17:20 | 42.09561 | 5.14711 | 29961 ft | 512 kts | 44° |
| 2026-05-07 17:20 | 42.14649 | 5.21527 | 29962 ft | 512 kts | 44° |
| 2026-05-07 17:21 | 42.19700 | 5.28311 | 29961 ft | 512 kts | 44° |
| 2026-05-07 17:21 | 42.24713 | 5.35060 | 29957 ft | 513 kts | 44° |
| 2026-05-07 17:22 | 42.29758 | 5.41869 | 29959 ft | 513 kts | 44° |
| 2026-05-07 17:22 | 42.34839 | 5.48742 | 29960 ft | 513 kts | 44° |
| 2026-05-07 17:23 | 42.39883 | 5.55583 | 29959 ft | 513 kts | 44° |
| 2026-05-07 17:23 | 42.44919 | 5.62428 | 29956 ft | 513 kts | 44° |
| 2026-05-07 17:24 | 42.49948 | 5.69282 | 29956 ft | 513 kts | 44° |
| 2026-05-07 17:24 | 42.54973 | 5.76145 | 29955 ft | 513 kts | 44° |
| 2026-05-07 17:25 | 42.59992 | 5.83017 | 29955 ft | 512 kts | 44° |
| 2026-05-07 17:25 | 42.65009 | 5.89902 | 29957 ft | 513 kts | 44° |
| 2026-05-07 17:26 | 42.70021 | 5.96799 | 29960 ft | 512 kts | 44° |
| 2026-05-07 17:26 | 42.75029 | 6.03707 | 29960 ft | 512 kts | 44° |
| 2026-05-07 17:27 | 42.79992 | 6.10569 | 29962 ft | 512 kts | 44° |
| 2026-05-07 17:27 | 42.84996 | 6.17492 | 29961 ft | 512 kts | 43° |
| 2026-05-07 17:28 | 42.90375 | 6.23776 | 29957 ft | 511 kts | 38° |
| 2026-05-07 17:28 | 42.95782 | 6.29956 | 29956 ft | 511 kts | 38° |
| 2026-05-07 17:29 | 43.01224 | 6.36205 | 29957 ft | 511 kts | 38° |
| 2026-05-07 17:29 | 43.06662 | 6.42472 | 29954 ft | 511 kts | 38° |
| 2026-05-07 17:30 | 43.12102 | 6.48756 | 29948 ft | 511 kts | 38° |
| 2026-05-07 17:30 | 43.17533 | 6.55045 | 29949 ft | 511 kts | 38° |
| 2026-05-07 17:31 | 43.22695 | 6.61734 | 29945 ft | 512 kts | 50° |
| 2026-05-07 17:31 | 43.26931 | 6.69616 | 29947 ft | 514 kts | 54° |
| 2026-05-07 17:32 | 43.28350 | 6.72298 | 29942 ft | 514 kts | 54° |